sensor_id;sensor_type;location;lat;lon;timestamp;P1;durP1;ratioP1;P2;durP2;ratioP2
9392;SDS011;4736;52.508;13.422;2023-07-16T00:00:09;4.40;;;4.30;;
9392;SDS011;4736;52.508;13.422;2023-07-16T00:03:13;4.43;;;4.23;;
9392;SDS011;4736;52.508;13.422;2023-07-16T00:06:16;5.00;;;4.60;;
9392;SDS011;4736;52.508;13.422;2023-07-16T00:09:19;4.97;;;4.57;;
9392;SDS011;4736;52.508;13.422;2023-07-16T00:12:24;5.13;;;4.87;;
9392;SDS011;4736;52.508;13.422;2023-07-16T00:15:27;4.63;;;4.30;;
9392;SDS011;4736;52.508;13.422;2023-07-16T00:18:30;4.50;;;4.23;;
9392;SDS011;4736;52.508;13.422;2023-07-16T00:21:33;4.87;;;4.53;;
9392;SDS011;4736;52.508;13.422;2023-07-16T00:24:36;4.80;;;4.50;;
9392;SDS011;4736;52.508;13.422;2023-07-16T00:27:41;4.60;;;4.50;;
9392;SDS011;4736;52.508;13.422;2023-07-16T00:30:44;4.40;;;4.10;;
9392;SDS011;4736;52.508;13.422;2023-07-16T00:33:47;4.77;;;4.47;;
9392;SDS011;4736;52.508;13.422;2023-07-16T00:36:51;4.83;;;4.70;;
9392;SDS011;4736;52.508;13.422;2023-07-16T00:39:54;4.87;;;4.60;;
9392;SDS011;4736;52.508;13.422;2023-07-16T00:42:58;4.53;;;4.33;;
9392;SDS011;4736;52.508;13.422;2023-07-16T00:46:01;4.90;;;4.40;;
9392;SDS011;4736;52.508;13.422;2023-07-16T00:49:05;4.37;;;4.10;;
9392;SDS011;4736;52.508;13.422;2023-07-16T00:52:11;4.80;;;4.50;;
9392;SDS011;4736;52.508;13.422;2023-07-16T00:55:20;4.43;;;4.13;;
9392;SDS011;4736;52.508;13.422;2023-07-16T00:58:25;4.43;;;4.17;;
9392;SDS011;4736;52.508;13.422;2023-07-16T01:01:28;4.70;;;4.33;;
9392;SDS011;4736;52.508;13.422;2023-07-16T01:04:31;4.67;;;4.27;;
9392;SDS011;4736;52.508;13.422;2023-07-16T01:07:35;5.23;;;4.83;;
9392;SDS011;4736;52.508;13.422;2023-07-16T01:10:40;5.77;;;5.33;;
9392;SDS011;4736;52.508;13.422;2023-07-16T01:13:46;4.60;;;4.40;;
9392;SDS011;4736;52.508;13.422;2023-07-16T01:16:49;4.50;;;4.23;;
9392;SDS011;4736;52.508;13.422;2023-07-16T01:19:55;5.20;;;4.80;;
9392;SDS011;4736;52.508;13.422;2023-07-16T01:23:10;4.83;;;4.53;;
9392;SDS011;4736;52.508;13.422;2023-07-16T01:29:58;8.47;;;7.87;;
9392;SDS011;4736;52.508;13.422;2023-07-16T01:33:04;6.07;;;5.77;;
9392;SDS011;4736;52.508;13.422;2023-07-16T01:36:11;6.20;;;5.50;;
9392;SDS011;4736;52.508;13.422;2023-07-16T01:39:15;5.40;;;5.10;;
9392;SDS011;4736;52.508;13.422;2023-07-16T01:42:19;5.97;;;5.57;;
9392;SDS011;4736;52.508;13.422;2023-07-16T01:45:24;6.13;;;5.60;;
9392;SDS011;4736;52.508;13.422;2023-07-16T01:48:28;5.97;;;5.57;;
9392;SDS011;4736;52.508;13.422;2023-07-16T01:51:33;6.50;;;5.90;;
9392;SDS011;4736;52.508;13.422;2023-07-16T01:54:36;5.67;;;5.30;;
9392;SDS011;4736;52.508;13.422;2023-07-16T01:57:39;5.80;;;5.50;;
9392;SDS011;4736;52.508;13.422;2023-07-16T02:00:43;5.40;;;4.97;;
9392;SDS011;4736;52.508;13.422;2023-07-16T02:03:47;6.00;;;5.43;;
9392;SDS011;4736;52.508;13.422;2023-07-16T02:06:50;5.23;;;4.90;;
9392;SDS011;4736;52.508;13.422;2023-07-16T02:09:53;5.13;;;4.80;;
9392;SDS011;4736;52.508;13.422;2023-07-16T02:12:56;5.37;;;4.93;;
9392;SDS011;4736;52.508;13.422;2023-07-16T02:16:04;5.00;;;4.60;;
9392;SDS011;4736;52.508;13.422;2023-07-16T02:19:07;4.43;;;4.10;;
9392;SDS011;4736;52.508;13.422;2023-07-16T02:22:11;4.00;;;3.73;;
9392;SDS011;4736;52.508;13.422;2023-07-16T02:25:14;4.43;;;4.10;;
9392;SDS011;4736;52.508;13.422;2023-07-16T02:28:17;5.50;;;4.03;;
9392;SDS011;4736;52.508;13.422;2023-07-16T02:31:21;4.30;;;3.90;;
9392;SDS011;4736;52.508;13.422;2023-07-16T02:34:25;9.53;;;4.43;;
9392;SDS011;4736;52.508;13.422;2023-07-16T02:37:28;4.47;;;4.27;;
9392;SDS011;4736;52.508;13.422;2023-07-16T02:40:31;4.07;;;3.87;;
9392;SDS011;4736;52.508;13.422;2023-07-16T02:43:34;3.93;;;3.83;;
9392;SDS011;4736;52.508;13.422;2023-07-16T02:46:39;4.10;;;4.00;;
9392;SDS011;4736;52.508;13.422;2023-07-16T02:49:43;4.30;;;4.10;;
9392;SDS011;4736;52.508;13.422;2023-07-16T02:52:46;4.53;;;4.33;;
9392;SDS011;4736;52.508;13.422;2023-07-16T02:55:49;4.63;;;4.33;;
9392;SDS011;4736;52.508;13.422;2023-07-16T02:58:52;4.70;;;4.50;;
9392;SDS011;4736;52.508;13.422;2023-07-16T03:01:56;4.60;;;4.40;;
9392;SDS011;4736;52.508;13.422;2023-07-16T03:05:00;5.40;;;4.70;;
9392;SDS011;4736;52.508;13.422;2023-07-16T03:08:03;4.73;;;4.53;;
9392;SDS011;4736;52.508;13.422;2023-07-16T03:11:06;5.07;;;4.87;;
9392;SDS011;4736;52.508;13.422;2023-07-16T03:14:10;5.83;;;5.40;;
9392;SDS011;4736;52.508;13.422;2023-07-16T03:17:14;5.13;;;4.93;;
9392;SDS011;4736;52.508;13.422;2023-07-16T03:20:18;5.00;;;4.70;;
9392;SDS011;4736;52.508;13.422;2023-07-16T03:23:21;4.97;;;4.77;;
9392;SDS011;4736;52.508;13.422;2023-07-16T03:26:24;4.67;;;4.47;;
9392;SDS011;4736;52.508;13.422;2023-07-16T03:29:27;5.10;;;4.80;;
9392;SDS011;4736;52.508;13.422;2023-07-16T03:32:32;4.30;;;4.00;;
9392;SDS011;4736;52.508;13.422;2023-07-16T03:35:50;4.60;;;4.37;;
9392;SDS011;4736;52.508;13.422;2023-07-16T03:38:53;5.00;;;4.50;;
9392;SDS011;4736;52.508;13.422;2023-07-16T03:41:57;4.50;;;4.20;;
9392;SDS011;4736;52.508;13.422;2023-07-16T03:45:00;4.00;;;3.80;;
9392;SDS011;4736;52.508;13.422;2023-07-16T03:48:05;4.57;;;4.20;;
9392;SDS011;4736;52.508;13.422;2023-07-16T03:51:08;3.93;;;3.83;;
9392;SDS011;4736;52.508;13.422;2023-07-16T03:54:11;4.53;;;4.10;;
9392;SDS011;4736;52.508;13.422;2023-07-16T03:57:14;4.03;;;3.90;;
9392;SDS011;4736;52.508;13.422;2023-07-16T04:00:18;3.73;;;3.53;;
9392;SDS011;4736;52.508;13.422;2023-07-16T04:03:22;3.83;;;3.73;;
9392;SDS011;4736;52.508;13.422;2023-07-16T04:06:26;4.00;;;3.77;;
9392;SDS011;4736;52.508;13.422;2023-07-16T04:09:29;3.33;;;3.23;;
9392;SDS011;4736;52.508;13.422;2023-07-16T04:12:32;3.60;;;3.50;;
9392;SDS011;4736;52.508;13.422;2023-07-16T04:15:35;4.40;;;4.10;;
9392;SDS011;4736;52.508;13.422;2023-07-16T04:18:40;3.80;;;3.70;;
9392;SDS011;4736;52.508;13.422;2023-07-16T04:21:43;3.80;;;3.57;;
9392;SDS011;4736;52.508;13.422;2023-07-16T04:24:46;3.97;;;3.87;;
9392;SDS011;4736;52.508;13.422;2023-07-16T04:27:49;3.83;;;3.73;;
9392;SDS011;4736;52.508;13.422;2023-07-16T04:30:52;4.00;;;3.80;;
9392;SDS011;4736;52.508;13.422;2023-07-16T04:33:57;3.47;;;3.20;;
9392;SDS011;4736;52.508;13.422;2023-07-16T04:37:00;3.63;;;3.53;;
9392;SDS011;4736;52.508;13.422;2023-07-16T04:40:04;4.23;;;3.93;;
9392;SDS011;4736;52.508;13.422;2023-07-16T04:43:08;3.70;;;3.60;;
9392;SDS011;4736;52.508;13.422;2023-07-16T04:46:11;4.37;;;4.20;;
9392;SDS011;4736;52.508;13.422;2023-07-16T04:49:16;3.93;;;3.80;;
9392;SDS011;4736;52.508;13.422;2023-07-16T04:52:20;4.50;;;4.30;;
9392;SDS011;4736;52.508;13.422;2023-07-16T04:55:23;4.37;;;4.27;;
9392;SDS011;4736;52.508;13.422;2023-07-16T04:58:27;4.27;;;4.17;;
9392;SDS011;4736;52.508;13.422;2023-07-16T05:01:30;4.87;;;4.63;;
9392;SDS011;4736;52.508;13.422;2023-07-16T05:04:35;5.00;;;4.77;;
9392;SDS011;4736;52.508;13.422;2023-07-16T05:07:38;4.73;;;4.43;;
9392;SDS011;4736;52.508;13.422;2023-07-16T05:10:42;4.90;;;4.60;;
9392;SDS011;4736;52.508;13.422;2023-07-16T05:13:45;4.27;;;4.17;;
9392;SDS011;4736;52.508;13.422;2023-07-16T05:16:48;4.60;;;4.30;;
9392;SDS011;4736;52.508;13.422;2023-07-16T05:19:53;4.80;;;4.60;;
9392;SDS011;4736;52.508;13.422;2023-07-16T05:22:56;5.37;;;5.07;;
9392;SDS011;4736;52.508;13.422;2023-07-16T05:26:00;4.57;;;4.37;;
9392;SDS011;4736;52.508;13.422;2023-07-16T05:29:03;4.53;;;4.23;;
9392;SDS011;4736;52.508;13.422;2023-07-16T05:32:07;4.30;;;4.10;;
9392;SDS011;4736;52.508;13.422;2023-07-16T05:35:12;4.80;;;4.60;;
9392;SDS011;4736;52.508;13.422;2023-07-16T05:38:15;4.73;;;4.43;;
9392;SDS011;4736;52.508;13.422;2023-07-16T05:41:18;4.43;;;4.17;;
9392;SDS011;4736;52.508;13.422;2023-07-16T05:44:24;4.90;;;4.50;;
9392;SDS011;4736;52.508;13.422;2023-07-16T05:47:28;4.93;;;4.50;;
9392;SDS011;4736;52.508;13.422;2023-07-16T05:50:33;4.70;;;4.50;;
9392;SDS011;4736;52.508;13.422;2023-07-16T05:53:36;4.70;;;4.40;;
9392;SDS011;4736;52.508;13.422;2023-07-16T05:56:39;4.70;;;4.03;;
9392;SDS011;4736;52.508;13.422;2023-07-16T05:59:42;4.43;;;4.23;;
9392;SDS011;4736;52.508;13.422;2023-07-16T06:02:46;4.40;;;4.20;;
9392;SDS011;4736;52.508;13.422;2023-07-16T06:05:50;4.50;;;4.37;;
9392;SDS011;4736;52.508;13.422;2023-07-16T06:08:53;4.10;;;3.90;;
9392;SDS011;4736;52.508;13.422;2023-07-16T06:11:56;4.67;;;4.40;;
9392;SDS011;4736;52.508;13.422;2023-07-16T06:14:59;5.07;;;4.77;;
9392;SDS011;4736;52.508;13.422;2023-07-16T06:18:02;4.60;;;4.20;;
9392;SDS011;4736;52.508;13.422;2023-07-16T06:21:07;4.53;;;4.17;;
9392;SDS011;4736;52.508;13.422;2023-07-16T06:24:10;3.77;;;3.67;;
9392;SDS011;4736;52.508;13.422;2023-07-16T06:27:17;4.27;;;4.17;;
9392;SDS011;4736;52.508;13.422;2023-07-16T06:30:20;4.57;;;4.37;;
9392;SDS011;4736;52.508;13.422;2023-07-16T06:33:23;5.33;;;4.10;;
9392;SDS011;4736;52.508;13.422;2023-07-16T06:36:29;4.47;;;4.17;;
9392;SDS011;4736;52.508;13.422;2023-07-16T06:39:32;4.37;;;4.27;;
9392;SDS011;4736;52.508;13.422;2023-07-16T06:42:35;4.33;;;4.13;;
9392;SDS011;4736;52.508;13.422;2023-07-16T06:45:39;3.80;;;3.60;;
9392;SDS011;4736;52.508;13.422;2023-07-16T06:48:42;4.37;;;4.07;;
9392;SDS011;4736;52.508;13.422;2023-07-16T06:51:46;4.33;;;4.20;;
9392;SDS011;4736;52.508;13.422;2023-07-16T06:54:49;4.70;;;4.30;;
9392;SDS011;4736;52.508;13.422;2023-07-16T06:57:52;3.83;;;3.73;;
9392;SDS011;4736;52.508;13.422;2023-07-16T07:00:56;4.50;;;4.07;;
9392;SDS011;4736;52.508;13.422;2023-07-16T07:03:59;4.47;;;4.17;;
9392;SDS011;4736;52.508;13.422;2023-07-16T07:07:04;4.00;;;3.90;;
9392;SDS011;4736;52.508;13.422;2023-07-16T07:10:10;4.30;;;4.10;;
9392;SDS011;4736;52.508;13.422;2023-07-16T07:13:13;4.10;;;4.00;;
9392;SDS011;4736;52.508;13.422;2023-07-16T07:16:16;3.93;;;3.83;;
9392;SDS011;4736;52.508;13.422;2023-07-16T07:19:21;3.93;;;3.83;;
9392;SDS011;4736;52.508;13.422;2023-07-16T07:22:25;4.87;;;4.43;;
9392;SDS011;4736;52.508;13.422;2023-07-16T07:25:29;4.57;;;4.13;;
9392;SDS011;4736;52.508;13.422;2023-07-16T07:28:32;3.87;;;3.67;;
9392;SDS011;4736;52.508;13.422;2023-07-16T07:31:35;4.10;;;4.00;;
9392;SDS011;4736;52.508;13.422;2023-07-16T07:34:38;4.17;;;3.90;;
9392;SDS011;4736;52.508;13.422;2023-07-16T07:37:43;4.23;;;3.90;;
9392;SDS011;4736;52.508;13.422;2023-07-16T07:40:46;7.40;;;3.90;;
9392;SDS011;4736;52.508;13.422;2023-07-16T07:43:49;4.17;;;3.80;;
9392;SDS011;4736;52.508;13.422;2023-07-16T07:46:53;4.30;;;3.90;;
9392;SDS011;4736;52.508;13.422;2023-07-16T07:49:56;4.40;;;3.80;;
9392;SDS011;4736;52.508;13.422;2023-07-16T07:53:02;4.00;;;3.70;;
9392;SDS011;4736;52.508;13.422;2023-07-16T07:56:05;3.57;;;3.47;;
9392;SDS011;4736;52.508;13.422;2023-07-16T07:59:08;3.67;;;3.40;;
9392;SDS011;4736;52.508;13.422;2023-07-16T08:02:12;4.00;;;3.80;;
9392;SDS011;4736;52.508;13.422;2023-07-16T08:05:15;3.60;;;3.40;;
9392;SDS011;4736;52.508;13.422;2023-07-16T08:08:20;2.97;;;2.87;;
9392;SDS011;4736;52.508;13.422;2023-07-16T08:11:23;3.90;;;3.60;;
9392;SDS011;4736;52.508;13.422;2023-07-16T08:14:26;2.93;;;2.93;;
9392;SDS011;4736;52.508;13.422;2023-07-16T08:17:30;3.40;;;3.30;;
9392;SDS011;4736;52.508;13.422;2023-07-16T08:20:33;3.13;;;2.93;;
9392;SDS011;4736;52.508;13.422;2023-07-16T08:23:39;3.10;;;2.90;;
9392;SDS011;4736;52.508;13.422;2023-07-16T08:26:42;2.97;;;2.87;;
9392;SDS011;4736;52.508;13.422;2023-07-16T08:29:45;5.23;;;3.43;;
9392;SDS011;4736;52.508;13.422;2023-07-16T08:32:49;3.20;;;3.00;;
9392;SDS011;4736;52.508;13.422;2023-07-16T08:35:54;3.00;;;2.90;;
9392;SDS011;4736;52.508;13.422;2023-07-16T08:38:59;2.80;;;2.60;;
9392;SDS011;4736;52.508;13.422;2023-07-16T08:42:02;4.20;;;2.87;;
9392;SDS011;4736;52.508;13.422;2023-07-16T08:45:07;3.10;;;2.90;;
9392;SDS011;4736;52.508;13.422;2023-07-16T08:48:12;3.43;;;3.07;;
9392;SDS011;4736;52.508;13.422;2023-07-16T08:51:15;3.17;;;3.00;;
9392;SDS011;4736;52.508;13.422;2023-07-16T08:54:21;3.00;;;2.90;;
9392;SDS011;4736;52.508;13.422;2023-07-16T08:57:26;3.27;;;3.10;;
9392;SDS011;4736;52.508;13.422;2023-07-16T09:00:31;3.27;;;3.13;;
9392;SDS011;4736;52.508;13.422;2023-07-16T09:03:36;3.10;;;2.97;;
9392;SDS011;4736;52.508;13.422;2023-07-16T09:06:39;3.57;;;3.27;;
9392;SDS011;4736;52.508;13.422;2023-07-16T09:09:43;3.60;;;3.40;;
9392;SDS011;4736;52.508;13.422;2023-07-16T09:13:02;3.10;;;2.90;;
9392;SDS011;4736;52.508;13.422;2023-07-16T09:16:05;3.43;;;3.23;;
9392;SDS011;4736;52.508;13.422;2023-07-16T09:19:09;3.20;;;3.10;;
9392;SDS011;4736;52.508;13.422;2023-07-16T09:22:16;3.23;;;3.13;;
9392;SDS011;4736;52.508;13.422;2023-07-16T09:25:21;2.77;;;2.57;;
9392;SDS011;4736;52.508;13.422;2023-07-16T09:28:29;3.23;;;3.00;;
9392;SDS011;4736;52.508;13.422;2023-07-16T09:31:33;3.23;;;3.03;;
9392;SDS011;4736;52.508;13.422;2023-07-16T09:34:36;3.57;;;3.37;;
9392;SDS011;4736;52.508;13.422;2023-07-16T09:37:42;4.47;;;3.43;;
9392;SDS011;4736;52.508;13.422;2023-07-16T09:40:47;3.07;;;2.97;;
9392;SDS011;4736;52.508;13.422;2023-07-16T09:43:50;3.30;;;3.00;;
9392;SDS011;4736;52.508;13.422;2023-07-16T09:46:54;3.93;;;2.83;;
9392;SDS011;4736;52.508;13.422;2023-07-16T09:49:57;3.30;;;3.10;;
9392;SDS011;4736;52.508;13.422;2023-07-16T09:53:01;3.27;;;3.03;;
9392;SDS011;4736;52.508;13.422;2023-07-16T09:56:06;3.07;;;2.87;;
9392;SDS011;4736;52.508;13.422;2023-07-16T09:59:13;3.10;;;3.00;;
9392;SDS011;4736;52.508;13.422;2023-07-16T10:02:17;3.00;;;2.90;;
9392;SDS011;4736;52.508;13.422;2023-07-16T10:05:23;3.33;;;3.13;;
9392;SDS011;4736;52.508;13.422;2023-07-16T10:08:32;3.17;;;3.07;;
9392;SDS011;4736;52.508;13.422;2023-07-16T10:11:38;2.80;;;2.70;;
9392;SDS011;4736;52.508;13.422;2023-07-16T10:14:44;3.23;;;3.00;;
9392;SDS011;4736;52.508;13.422;2023-07-16T10:17:49;3.20;;;3.10;;
9392;SDS011;4736;52.508;13.422;2023-07-16T10:20:53;3.83;;;3.27;;
9392;SDS011;4736;52.508;13.422;2023-07-16T10:23:59;4.27;;;3.50;;
9392;SDS011;4736;52.508;13.422;2023-07-16T10:27:05;2.83;;;2.63;;
9392;SDS011;4736;52.508;13.422;2023-07-16T10:30:09;3.63;;;3.33;;
9392;SDS011;4736;52.508;13.422;2023-07-16T10:33:12;3.57;;;3.13;;
9392;SDS011;4736;52.508;13.422;2023-07-16T10:36:17;4.20;;;3.90;;
9392;SDS011;4736;52.508;13.422;2023-07-16T10:39:21;3.40;;;3.27;;
9392;SDS011;4736;52.508;13.422;2023-07-16T10:42:27;3.20;;;3.10;;
9392;SDS011;4736;52.508;13.422;2023-07-16T10:45:30;3.50;;;3.20;;
9392;SDS011;4736;52.508;13.422;2023-07-16T10:48:33;3.67;;;3.47;;
9392;SDS011;4736;52.508;13.422;2023-07-16T10:51:36;3.33;;;3.13;;
9392;SDS011;4736;52.508;13.422;2023-07-16T10:54:39;3.83;;;3.53;;
9392;SDS011;4736;52.508;13.422;2023-07-16T10:57:46;3.47;;;3.37;;
9392;SDS011;4736;52.508;13.422;2023-07-16T11:00:49;3.37;;;3.17;;
9392;SDS011;4736;52.508;13.422;2023-07-16T11:03:53;3.23;;;2.93;;
9392;SDS011;4736;52.508;13.422;2023-07-16T11:06:56;3.47;;;3.27;;
9392;SDS011;4736;52.508;13.422;2023-07-16T11:09:59;3.93;;;3.63;;
9392;SDS011;4736;52.508;13.422;2023-07-16T11:13:05;3.60;;;3.40;;
9392;SDS011;4736;52.508;13.422;2023-07-16T11:16:08;3.73;;;3.40;;
9392;SDS011;4736;52.508;13.422;2023-07-16T11:19:12;3.30;;;3.10;;
9392;SDS011;4736;52.508;13.422;2023-07-16T11:22:15;3.40;;;3.30;;
9392;SDS011;4736;52.508;13.422;2023-07-16T11:25:19;3.80;;;3.53;;
9392;SDS011;4736;52.508;13.422;2023-07-16T11:28:25;3.67;;;3.37;;
9392;SDS011;4736;52.508;13.422;2023-07-16T11:31:38;3.00;;;2.90;;
9392;SDS011;4736;52.508;13.422;2023-07-16T11:34:51;3.47;;;3.37;;
9392;SDS011;4736;52.508;13.422;2023-07-16T11:37:55;3.60;;;3.50;;
9392;SDS011;4736;52.508;13.422;2023-07-16T11:40:59;5.80;;;3.83;;
9392;SDS011;4736;52.508;13.422;2023-07-16T11:44:04;4.80;;;3.50;;
9392;SDS011;4736;52.508;13.422;2023-07-16T11:47:10;3.20;;;3.10;;
9392;SDS011;4736;52.508;13.422;2023-07-16T11:50:15;3.80;;;3.70;;
9392;SDS011;4736;52.508;13.422;2023-07-16T11:53:18;3.17;;;3.07;;
9392;SDS011;4736;52.508;13.422;2023-07-16T11:56:21;5.27;;;3.37;;
9392;SDS011;4736;52.508;13.422;2023-07-16T11:59:26;3.33;;;3.23;;
9392;SDS011;4736;52.508;13.422;2023-07-16T12:02:29;3.27;;;3.03;;
9392;SDS011;4736;52.508;13.422;2023-07-16T12:05:33;3.43;;;3.33;;
9392;SDS011;4736;52.508;13.422;2023-07-16T12:08:53;3.67;;;3.40;;
9392;SDS011;4736;52.508;13.422;2023-07-16T12:11:56;2.50;;;2.40;;
9392;SDS011;4736;52.508;13.422;2023-07-16T12:15:01;3.30;;;3.17;;
9392;SDS011;4736;52.508;13.422;2023-07-16T12:18:04;3.73;;;3.53;;
9392;SDS011;4736;52.508;13.422;2023-07-16T12:21:08;3.20;;;2.90;;
9392;SDS011;4736;52.508;13.422;2023-07-16T12:24:11;3.10;;;2.80;;
9392;SDS011;4736;52.508;13.422;2023-07-16T12:27:14;3.13;;;3.03;;
9392;SDS011;4736;52.508;13.422;2023-07-16T12:30:20;3.20;;;3.10;;
9392;SDS011;4736;52.508;13.422;2023-07-16T12:33:24;3.10;;;3.00;;
9392;SDS011;4736;52.508;13.422;2023-07-16T12:36:27;3.63;;;3.40;;
9392;SDS011;4736;52.508;13.422;2023-07-16T12:39:30;2.93;;;2.73;;
9392;SDS011;4736;52.508;13.422;2023-07-16T12:42:34;3.17;;;2.87;;
9392;SDS011;4736;52.508;13.422;2023-07-16T12:45:41;3.43;;;3.23;;
9392;SDS011;4736;52.508;13.422;2023-07-16T12:48:44;3.30;;;3.20;;
9392;SDS011;4736;52.508;13.422;2023-07-16T12:51:47;3.10;;;3.00;;
9392;SDS011;4736;52.508;13.422;2023-07-16T12:54:50;3.10;;;2.90;;
9392;SDS011;4736;52.508;13.422;2023-07-16T12:57:56;3.40;;;2.83;;
9392;SDS011;4736;52.508;13.422;2023-07-16T13:01:03;2.53;;;2.33;;
9392;SDS011;4736;52.508;13.422;2023-07-16T13:04:06;3.60;;;2.90;;
9392;SDS011;4736;52.508;13.422;2023-07-16T13:07:10;3.00;;;2.80;;
9392;SDS011;4736;52.508;13.422;2023-07-16T13:10:12;3.10;;;2.90;;
9392;SDS011;4736;52.508;13.422;2023-07-16T13:13:24;4.73;;;3.03;;
9392;SDS011;4736;52.508;13.422;2023-07-16T13:16:29;2.90;;;2.70;;
9392;SDS011;4736;52.508;13.422;2023-07-16T13:19:32;3.33;;;3.13;;
9392;SDS011;4736;52.508;13.422;2023-07-16T13:22:35;3.17;;;3.07;;
9392;SDS011;4736;52.508;13.422;2023-07-16T13:25:38;3.53;;;3.33;;
9392;SDS011;4736;52.508;13.422;2023-07-16T13:28:41;3.37;;;3.13;;
9392;SDS011;4736;52.508;13.422;2023-07-16T13:31:46;2.83;;;2.70;;
9392;SDS011;4736;52.508;13.422;2023-07-16T13:34:49;2.80;;;2.63;;
9392;SDS011;4736;52.508;13.422;2023-07-16T13:37:52;3.03;;;2.80;;
9392;SDS011;4736;52.508;13.422;2023-07-16T13:40:55;2.80;;;2.70;;
9392;SDS011;4736;52.508;13.422;2023-07-16T13:43:58;3.07;;;2.97;;
9392;SDS011;4736;52.508;13.422;2023-07-16T13:47:03;3.50;;;3.23;;
9392;SDS011;4736;52.508;13.422;2023-07-16T13:50:06;4.47;;;2.90;;
9392;SDS011;4736;52.508;13.422;2023-07-16T13:53:10;2.87;;;2.67;;
9392;SDS011;4736;52.508;13.422;2023-07-16T13:56:13;2.70;;;2.60;;
9392;SDS011;4736;52.508;13.422;2023-07-16T13:59:17;3.10;;;3.00;;
9392;SDS011;4736;52.508;13.422;2023-07-16T14:02:23;5.03;;;3.17;;
9392;SDS011;4736;52.508;13.422;2023-07-16T14:05:28;3.00;;;2.57;;
9392;SDS011;4736;52.508;13.422;2023-07-16T14:08:36;3.30;;;3.13;;
9392;SDS011;4736;52.508;13.422;2023-07-16T14:11:39;2.83;;;2.73;;
9392;SDS011;4736;52.508;13.422;2023-07-16T14:14:42;2.80;;;2.60;;
9392;SDS011;4736;52.508;13.422;2023-07-16T14:17:46;4.37;;;2.97;;
9392;SDS011;4736;52.508;13.422;2023-07-16T14:20:49;6.07;;;2.87;;
9392;SDS011;4736;52.508;13.422;2023-07-16T14:23:53;2.80;;;2.70;;
9392;SDS011;4736;52.508;13.422;2023-07-16T14:26:57;2.63;;;2.53;;
9392;SDS011;4736;52.508;13.422;2023-07-16T14:30:01;3.33;;;3.13;;
9392;SDS011;4736;52.508;13.422;2023-07-16T14:33:09;2.93;;;2.73;;
9392;SDS011;4736;52.508;13.422;2023-07-16T14:36:12;3.37;;;2.60;;
9392;SDS011;4736;52.508;13.422;2023-07-16T14:39:15;2.83;;;2.60;;
9392;SDS011;4736;52.508;13.422;2023-07-16T14:42:18;3.20;;;3.00;;
9392;SDS011;4736;52.508;13.422;2023-07-16T14:45:21;2.70;;;2.60;;
9392;SDS011;4736;52.508;13.422;2023-07-16T14:48:25;2.57;;;2.43;;
9392;SDS011;4736;52.508;13.422;2023-07-16T14:51:29;3.03;;;2.77;;
9392;SDS011;4736;52.508;13.422;2023-07-16T14:54:33;3.00;;;2.77;;
9392;SDS011;4736;52.508;13.422;2023-07-16T14:57:37;2.57;;;2.40;;
9392;SDS011;4736;52.508;13.422;2023-07-16T15:00:41;3.43;;;3.13;;
9392;SDS011;4736;52.508;13.422;2023-07-16T15:03:45;3.17;;;3.03;;
9392;SDS011;4736;52.508;13.422;2023-07-16T15:06:48;2.73;;;2.57;;
9392;SDS011;4736;52.508;13.422;2023-07-16T15:09:52;2.93;;;2.60;;
9392;SDS011;4736;52.508;13.422;2023-07-16T15:12:55;2.30;;;2.30;;
9392;SDS011;4736;52.508;13.422;2023-07-16T15:15:58;2.97;;;2.77;;
9392;SDS011;4736;52.508;13.422;2023-07-16T15:19:03;2.87;;;2.57;;
9392;SDS011;4736;52.508;13.422;2023-07-16T15:22:06;4.30;;;2.57;;
9392;SDS011;4736;52.508;13.422;2023-07-16T15:25:11;3.17;;;2.90;;
9392;SDS011;4736;52.508;13.422;2023-07-16T15:28:14;2.57;;;2.47;;
9392;SDS011;4736;52.508;13.422;2023-07-16T15:31:17;3.50;;;3.30;;
9392;SDS011;4736;52.508;13.422;2023-07-16T15:34:27;3.17;;;2.90;;
9392;SDS011;4736;52.508;13.422;2023-07-16T15:37:30;3.07;;;2.87;;
9392;SDS011;4736;52.508;13.422;2023-07-16T15:40:34;2.60;;;2.50;;
9392;SDS011;4736;52.508;13.422;2023-07-16T15:43:37;4.00;;;2.87;;
9392;SDS011;4736;52.508;13.422;2023-07-16T15:46:40;4.30;;;2.90;;
9392;SDS011;4736;52.508;13.422;2023-07-16T15:49:46;2.77;;;2.57;;
9392;SDS011;4736;52.508;13.422;2023-07-16T15:52:50;3.50;;;3.17;;
9392;SDS011;4736;52.508;13.422;2023-07-16T15:55:53;3.83;;;2.83;;
9392;SDS011;4736;52.508;13.422;2023-07-16T15:58:56;3.17;;;2.93;;
9392;SDS011;4736;52.508;13.422;2023-07-16T16:01:59;3.20;;;3.00;;
9392;SDS011;4736;52.508;13.422;2023-07-16T16:05:04;3.33;;;2.77;;
9392;SDS011;4736;52.508;13.422;2023-07-16T16:08:12;3.00;;;2.80;;
9392;SDS011;4736;52.508;13.422;2023-07-16T16:11:17;2.50;;;2.47;;
9392;SDS011;4736;52.508;13.422;2023-07-16T16:14:20;3.47;;;3.10;;
9392;SDS011;4736;52.508;13.422;2023-07-16T16:17:23;2.97;;;2.77;;
9392;SDS011;4736;52.508;13.422;2023-07-16T16:20:28;3.10;;;2.90;;
9392;SDS011;4736;52.508;13.422;2023-07-16T16:23:31;2.70;;;2.60;;
9392;SDS011;4736;52.508;13.422;2023-07-16T16:26:34;3.00;;;2.80;;
9392;SDS011;4736;52.508;13.422;2023-07-16T16:29:37;3.50;;;3.20;;
9392;SDS011;4736;52.508;13.422;2023-07-16T16:32:40;3.83;;;2.73;;
9392;SDS011;4736;52.508;13.422;2023-07-16T16:35:44;2.80;;;2.70;;
9392;SDS011;4736;52.508;13.422;2023-07-16T16:38:47;3.13;;;2.93;;
9392;SDS011;4736;52.508;13.422;2023-07-16T16:41:50;2.67;;;2.47;;
9392;SDS011;4736;52.508;13.422;2023-07-16T16:44:54;2.60;;;2.60;;
9392;SDS011;4736;52.508;13.422;2023-07-16T16:48:02;2.73;;;2.63;;
9392;SDS011;4736;52.508;13.422;2023-07-16T16:51:07;8.13;;;3.77;;
9392;SDS011;4736;52.508;13.422;2023-07-16T16:54:10;4.53;;;2.90;;
9392;SDS011;4736;52.508;13.422;2023-07-16T16:57:13;3.37;;;3.20;;
9392;SDS011;4736;52.508;13.422;2023-07-16T17:00:16;2.70;;;2.60;;
9392;SDS011;4736;52.508;13.422;2023-07-16T17:03:19;2.47;;;2.37;;
9392;SDS011;4736;52.508;13.422;2023-07-16T17:06:25;3.20;;;2.70;;
9392;SDS011;4736;52.508;13.422;2023-07-16T17:09:28;6.60;;;2.80;;
9392;SDS011;4736;52.508;13.422;2023-07-16T17:12:31;2.97;;;2.80;;
9392;SDS011;4736;52.508;13.422;2023-07-16T17:15:34;4.23;;;3.20;;
9392;SDS011;4736;52.508;13.422;2023-07-16T17:18:37;4.20;;;3.20;;
9392;SDS011;4736;52.508;13.422;2023-07-16T17:21:45;2.70;;;2.60;;
9392;SDS011;4736;52.508;13.422;2023-07-16T17:24:50;3.10;;;2.87;;
9392;SDS011;4736;52.508;13.422;2023-07-16T17:27:53;3.27;;;2.90;;
9392;SDS011;4736;52.508;13.422;2023-07-16T17:30:56;4.63;;;3.10;;
9392;SDS011;4736;52.508;13.422;2023-07-16T17:34:00;8.03;;;3.00;;
9392;SDS011;4736;52.508;13.422;2023-07-16T17:37:07;3.67;;;3.37;;
9392;SDS011;4736;52.508;13.422;2023-07-16T17:40:11;3.13;;;2.90;;
9392;SDS011;4736;52.508;13.422;2023-07-16T17:43:15;2.93;;;2.83;;
9392;SDS011;4736;52.508;13.422;2023-07-16T17:46:18;4.73;;;2.83;;
9392;SDS011;4736;52.508;13.422;2023-07-16T17:49:22;3.60;;;3.30;;
9392;SDS011;4736;52.508;13.422;2023-07-16T17:52:27;3.13;;;2.93;;
9392;SDS011;4736;52.508;13.422;2023-07-16T17:55:30;3.37;;;3.17;;
9392;SDS011;4736;52.508;13.422;2023-07-16T17:58:34;3.37;;;3.20;;
9392;SDS011;4736;52.508;13.422;2023-07-16T18:01:37;2.93;;;2.73;;
9392;SDS011;4736;52.508;13.422;2023-07-16T18:04:42;3.53;;;3.30;;
9392;SDS011;4736;52.508;13.422;2023-07-16T18:07:47;3.30;;;3.10;;
9392;SDS011;4736;52.508;13.422;2023-07-16T18:10:52;3.13;;;3.03;;
9392;SDS011;4736;52.508;13.422;2023-07-16T18:13:56;3.53;;;3.27;;
9392;SDS011;4736;52.508;13.422;2023-07-16T18:17:00;3.37;;;2.80;;
9392;SDS011;4736;52.508;13.422;2023-07-16T18:20:04;3.87;;;3.50;;
9392;SDS011;4736;52.508;13.422;2023-07-16T18:23:13;3.43;;;3.23;;
9392;SDS011;4736;52.508;13.422;2023-07-16T18:26:16;3.47;;;3.17;;
9392;SDS011;4736;52.508;13.422;2023-07-16T18:29:24;3.07;;;2.90;;
9392;SDS011;4736;52.508;13.422;2023-07-16T18:32:27;3.87;;;3.50;;
9392;SDS011;4736;52.508;13.422;2023-07-16T18:35:31;3.10;;;3.00;;
9392;SDS011;4736;52.508;13.422;2023-07-16T18:38:36;2.80;;;2.70;;
9392;SDS011;4736;52.508;13.422;2023-07-16T18:41:39;3.20;;;3.00;;
9392;SDS011;4736;52.508;13.422;2023-07-16T18:44:42;3.57;;;3.23;;
9392;SDS011;4736;52.508;13.422;2023-07-16T18:47:46;3.47;;;2.80;;